sensor_id;sensor_type;location;lat;lon;timestamp;P1;durP1;ratioP1;P2;durP2;ratioP2
17361;SDS011;8798;51.938;4.348;2024-03-29T00:01:50;5.57;;;1.00;;
17361;SDS011;8798;51.938;4.348;2024-03-29T00:04:17;4.83;;;0.90;;
17361;SDS011;8798;51.938;4.348;2024-03-29T00:06:43;1.67;;;0.70;;
17361;SDS011;8798;51.938;4.348;2024-03-29T00:09:09;3.10;;;0.80;;
17361;SDS011;8798;51.938;4.348;2024-03-29T00:11:36;2.50;;;0.90;;
17361;SDS011;8798;51.938;4.348;2024-03-29T00:14:02;2.23;;;0.80;;
17361;SDS011;8798;51.938;4.348;2024-03-29T00:16:28;3.43;;;0.67;;
17361;SDS011;8798;51.938;4.348;2024-03-29T00:18:54;1.77;;;0.80;;
17361;SDS011;8798;51.938;4.348;2024-03-29T00:21:21;4.37;;;0.87;;
17361;SDS011;8798;51.938;4.348;2024-03-29T00:23:47;4.43;;;0.97;;
17361;SDS011;8798;51.938;4.348;2024-03-29T00:26:13;3.50;;;0.90;;
17361;SDS011;8798;51.938;4.348;2024-03-29T00:28:39;3.67;;;0.73;;
17361;SDS011;8798;51.938;4.348;2024-03-29T00:31:05;4.60;;;0.80;;
17361;SDS011;8798;51.938;4.348;2024-03-29T00:33:33;5.23;;;1.03;;
17361;SDS011;8798;51.938;4.348;2024-03-29T00:35:59;5.60;;;1.00;;
17361;SDS011;8798;51.938;4.348;2024-03-29T00:38:26;3.93;;;0.70;;
17361;SDS011;8798;51.938;4.348;2024-03-29T00:40:52;3.70;;;0.87;;
17361;SDS011;8798;51.938;4.348;2024-03-29T00:43:18;3.07;;;0.90;;
17361;SDS011;8798;51.938;4.348;2024-03-29T00:45:44;6.03;;;1.00;;
17361;SDS011;8798;51.938;4.348;2024-03-29T00:48:10;3.47;;;1.20;;
17361;SDS011;8798;51.938;4.348;2024-03-29T00:50:36;6.30;;;0.80;;
17361;SDS011;8798;51.938;4.348;2024-03-29T00:53:02;6.17;;;1.00;;
17361;SDS011;8798;51.938;4.348;2024-03-29T00:55:30;3.40;;;0.90;;
17361;SDS011;8798;51.938;4.348;2024-03-29T00:57:56;3.80;;;0.97;;
17361;SDS011;8798;51.938;4.348;2024-03-29T01:00:22;4.67;;;1.10;;
17361;SDS011;8798;51.938;4.348;2024-03-29T01:02:48;5.63;;;1.03;;
17361;SDS011;8798;51.938;4.348;2024-03-29T01:05:14;3.87;;;1.17;;
17361;SDS011;8798;51.938;4.348;2024-03-29T01:07:40;2.77;;;1.13;;
17361;SDS011;8798;51.938;4.348;2024-03-29T01:10:09;3.87;;;0.90;;
17361;SDS011;8798;51.938;4.348;2024-03-29T01:12:36;6.43;;;1.07;;
17361;SDS011;8798;51.938;4.348;2024-03-29T01:15:02;6.30;;;1.40;;
17361;SDS011;8798;51.938;4.348;2024-03-29T01:17:29;1.43;;;0.70;;
17361;SDS011;8798;51.938;4.348;2024-03-29T01:19:55;4.33;;;0.90;;
17361;SDS011;8798;51.938;4.348;2024-03-29T01:22:21;4.37;;;1.03;;
17361;SDS011;8798;51.938;4.348;2024-03-29T01:24:47;3.60;;;1.10;;
17361;SDS011;8798;51.938;4.348;2024-03-29T01:27:13;7.40;;;1.10;;
17361;SDS011;8798;51.938;4.348;2024-03-29T01:29:40;5.93;;;1.03;;
17361;SDS011;8798;51.938;4.348;2024-03-29T01:32:06;6.43;;;1.10;;
17361;SDS011;8798;51.938;4.348;2024-03-29T01:34:32;4.50;;;0.90;;
17361;SDS011;8798;51.938;4.348;2024-03-29T01:36:58;2.50;;;0.80;;
17361;SDS011;8798;51.938;4.348;2024-03-29T01:39:25;4.03;;;1.00;;
17361;SDS011;8798;51.938;4.348;2024-03-29T01:41:51;1.83;;;0.80;;
17361;SDS011;8798;51.938;4.348;2024-03-29T01:44:17;6.37;;;1.17;;
17361;SDS011;8798;51.938;4.348;2024-03-29T01:46:45;4.97;;;1.00;;
17361;SDS011;8798;51.938;4.348;2024-03-29T01:49:13;5.77;;;0.97;;
17361;SDS011;8798;51.938;4.348;2024-03-29T01:51:40;2.60;;;0.90;;
17361;SDS011;8798;51.938;4.348;2024-03-29T01:54:08;4.97;;;0.87;;
17361;SDS011;8798;51.938;4.348;2024-03-29T01:56:36;4.23;;;0.90;;
17361;SDS011;8798;51.938;4.348;2024-03-29T01:59:06;3.20;;;1.00;;
17361;SDS011;8798;51.938;4.348;2024-03-29T02:01:39;6.00;;;1.10;;
17361;SDS011;8798;51.938;4.348;2024-03-29T02:04:09;5.30;;;1.30;;
17361;SDS011;8798;51.938;4.348;2024-03-29T02:06:36;5.27;;;1.17;;
17361;SDS011;8798;51.938;4.348;2024-03-29T02:09:04;5.23;;;1.10;;
17361;SDS011;8798;51.938;4.348;2024-03-29T02:11:32;2.53;;;1.00;;
17361;SDS011;8798;51.938;4.348;2024-03-29T02:14:00;5.20;;;1.03;;
17361;SDS011;8798;51.938;4.348;2024-03-29T02:16:27;4.40;;;1.07;;
17361;SDS011;8798;51.938;4.348;2024-03-29T02:18:53;4.07;;;1.00;;
17361;SDS011;8798;51.938;4.348;2024-03-29T02:21:21;5.77;;;1.00;;
17361;SDS011;8798;51.938;4.348;2024-03-29T02:23:54;7.30;;;1.23;;
17361;SDS011;8798;51.938;4.348;2024-03-29T02:26:24;4.47;;;1.00;;
17361;SDS011;8798;51.938;4.348;2024-03-29T02:28:57;2.33;;;0.70;;
17361;SDS011;8798;51.938;4.348;2024-03-29T02:31:24;4.17;;;1.00;;
17361;SDS011;8798;51.938;4.348;2024-03-29T02:33:51;8.60;;;1.00;;
17361;SDS011;8798;51.938;4.348;2024-03-29T02:36:18;6.80;;;0.87;;
17361;SDS011;8798;51.938;4.348;2024-03-29T02:38:45;3.73;;;1.20;;
17361;SDS011;8798;51.938;4.348;2024-03-29T02:41:13;2.37;;;0.87;;
17361;SDS011;8798;51.938;4.348;2024-03-29T02:43:40;3.10;;;0.83;;
17361;SDS011;8798;51.938;4.348;2024-03-29T02:46:07;3.53;;;1.10;;
17361;SDS011;8798;51.938;4.348;2024-03-29T02:48:34;4.07;;;0.90;;
17361;SDS011;8798;51.938;4.348;2024-03-29T02:51:00;3.33;;;0.70;;
17361;SDS011;8798;51.938;4.348;2024-03-29T02:53:27;4.20;;;0.73;;
17361;SDS011;8798;51.938;4.348;2024-03-29T02:55:53;3.33;;;0.80;;
17361;SDS011;8798;51.938;4.348;2024-03-29T02:58:22;2.17;;;0.77;;
17361;SDS011;8798;51.938;4.348;2024-03-29T03:00:48;2.13;;;0.80;;
17361;SDS011;8798;51.938;4.348;2024-03-29T03:03:15;1.77;;;0.80;;
17361;SDS011;8798;51.938;4.348;2024-03-29T03:05:41;1.57;;;0.70;;
17361;SDS011;8798;51.938;4.348;2024-03-29T03:08:08;4.57;;;0.70;;
17361;SDS011;8798;51.938;4.348;2024-03-29T03:10:53;4.53;;;0.70;;
17361;SDS011;8798;51.938;4.348;2024-03-29T03:13:26;1.70;;;0.70;;
17361;SDS011;8798;51.938;4.348;2024-03-29T03:15:54;3.37;;;0.67;;
17361;SDS011;8798;51.938;4.348;2024-03-29T03:18:21;2.90;;;0.70;;
17361;SDS011;8798;51.938;4.348;2024-03-29T03:20:51;1.47;;;0.70;;
17361;SDS011;8798;51.938;4.348;2024-03-29T03:23:18;1.60;;;0.63;;
17361;SDS011;8798;51.938;4.348;2024-03-29T03:25:44;2.83;;;0.70;;
17361;SDS011;8798;51.938;4.348;2024-03-29T03:28:11;3.67;;;0.80;;
17361;SDS011;8798;51.938;4.348;2024-03-29T03:30:40;0.87;;;0.57;;
17361;SDS011;8798;51.938;4.348;2024-03-29T03:33:07;3.53;;;0.80;;
17361;SDS011;8798;51.938;4.348;2024-03-29T03:35:33;6.00;;;0.97;;
17361;SDS011;8798;51.938;4.348;2024-03-29T03:38:00;1.83;;;0.80;;
17361;SDS011;8798;51.938;4.348;2024-03-29T03:40:26;1.60;;;0.50;;
17361;SDS011;8798;51.938;4.348;2024-03-29T03:42:53;1.20;;;0.50;;
17361;SDS011;8798;51.938;4.348;2024-03-29T03:45:20;0.60;;;0.40;;
17361;SDS011;8798;51.938;4.348;2024-03-29T03:47:48;3.47;;;0.60;;
17361;SDS011;8798;51.938;4.348;2024-03-29T03:50:14;2.73;;;0.60;;
17361;SDS011;8798;51.938;4.348;2024-03-29T03:52:41;2.43;;;0.60;;
17361;SDS011;8798;51.938;4.348;2024-03-29T03:55:07;3.37;;;0.50;;
17361;SDS011;8798;51.938;4.348;2024-03-29T03:57:34;2.07;;;0.60;;
17361;SDS011;8798;51.938;4.348;2024-03-29T04:00:00;0.57;;;0.40;;
17361;SDS011;8798;51.938;4.348;2024-03-29T04:02:28;1.97;;;0.60;;
17361;SDS011;8798;51.938;4.348;2024-03-29T04:04:55;1.10;;;0.60;;
17361;SDS011;8798;51.938;4.348;2024-03-29T04:07:22;1.87;;;0.53;;
17361;SDS011;8798;51.938;4.348;2024-03-29T04:09:50;1.37;;;0.60;;
17361;SDS011;8798;51.938;4.348;2024-03-29T04:12:17;1.03;;;0.40;;
17361;SDS011;8798;51.938;4.348;2024-03-29T04:14:43;2.80;;;0.67;;
17361;SDS011;8798;51.938;4.348;2024-03-29T04:17:10;2.53;;;0.50;;
17361;SDS011;8798;51.938;4.348;2024-03-29T04:19:36;1.97;;;0.40;;
17361;SDS011;8798;51.938;4.348;2024-03-29T04:22:05;0.30;;;0.20;;
17361;SDS011;8798;51.938;4.348;2024-03-29T04:24:31;0.77;;;0.30;;
17361;SDS011;8798;51.938;4.348;2024-03-29T04:26:57;0.70;;;0.37;;
17361;SDS011;8798;51.938;4.348;2024-03-29T04:29:24;0.63;;;0.40;;
17361;SDS011;8798;51.938;4.348;2024-03-29T04:31:50;1.20;;;0.40;;
17361;SDS011;8798;51.938;4.348;2024-03-29T04:34:16;1.80;;;0.30;;
17361;SDS011;8798;51.938;4.348;2024-03-29T04:36:43;2.17;;;0.30;;
17361;SDS011;8798;51.938;4.348;2024-03-29T04:39:12;1.13;;;0.40;;
17361;SDS011;8798;51.938;4.348;2024-03-29T04:41:39;1.90;;;0.43;;
17361;SDS011;8798;51.938;4.348;2024-03-29T04:44:05;0.40;;;0.30;;
17361;SDS011;8798;51.938;4.348;2024-03-29T04:46:33;2.23;;;0.70;;
17361;SDS011;8798;51.938;4.348;2024-03-29T04:49:00;0.93;;;0.73;;
17361;SDS011;8798;51.938;4.348;2024-03-29T04:51:27;2.03;;;0.30;;
17361;SDS011;8798;51.938;4.348;2024-03-29T04:53:54;0.97;;;0.60;;
17361;SDS011;8798;51.938;4.348;2024-03-29T04:56:22;1.60;;;0.40;;
17361;SDS011;8798;51.938;4.348;2024-03-29T04:58:49;0.40;;;0.23;;
17361;SDS011;8798;51.938;4.348;2024-03-29T05:01:17;1.30;;;0.50;;
17361;SDS011;8798;51.938;4.348;2024-03-29T05:03:44;0.80;;;0.30;;
17361;SDS011;8798;51.938;4.348;2024-03-29T05:06:11;1.93;;;0.50;;
17361;SDS011;8798;51.938;4.348;2024-03-29T05:08:38;2.60;;;0.40;;
17361;SDS011;8798;51.938;4.348;2024-03-29T05:11:05;0.33;;;0.20;;
17361;SDS011;8798;51.938;4.348;2024-03-29T05:13:34;2.00;;;0.30;;
17361;SDS011;8798;51.938;4.348;2024-03-29T05:16:02;2.87;;;0.40;;
17361;SDS011;8798;51.938;4.348;2024-03-29T05:18:29;2.00;;;0.30;;
17361;SDS011;8798;51.938;4.348;2024-03-29T05:20:55;1.17;;;0.53;;
17361;SDS011;8798;51.938;4.348;2024-03-29T05:23:22;1.27;;;0.40;;
17361;SDS011;8798;51.938;4.348;2024-03-29T05:25:49;1.50;;;0.40;;
17361;SDS011;8798;51.938;4.348;2024-03-29T05:28:17;0.60;;;0.40;;
17361;SDS011;8798;51.938;4.348;2024-03-29T05:30:46;1.13;;;0.47;;
17361;SDS011;8798;51.938;4.348;2024-03-29T05:33:13;2.00;;;0.60;;
17361;SDS011;8798;51.938;4.348;2024-03-29T05:35:41;1.40;;;0.50;;
17361;SDS011;8798;51.938;4.348;2024-03-29T05:38:07;1.13;;;0.47;;
17361;SDS011;8798;51.938;4.348;2024-03-29T05:40:34;3.30;;;0.60;;
17361;SDS011;8798;51.938;4.348;2024-03-29T05:43:03;1.90;;;0.53;;
17361;SDS011;8798;51.938;4.348;2024-03-29T05:45:30;1.47;;;0.50;;
17361;SDS011;8798;51.938;4.348;2024-03-29T05:47:59;1.63;;;0.50;;
17361;SDS011;8798;51.938;4.348;2024-03-29T05:50:27;3.23;;;0.60;;
17361;SDS011;8798;51.938;4.348;2024-03-29T05:52:54;1.03;;;0.50;;
17361;SDS011;8798;51.938;4.348;2024-03-29T05:55:20;2.73;;;0.73;;
17361;SDS011;8798;51.938;4.348;2024-03-29T05:57:48;2.13;;;0.70;;
17361;SDS011;8798;51.938;4.348;2024-03-29T06:00:15;6.93;;;0.80;;
17361;SDS011;8798;51.938;4.348;2024-03-29T06:02:42;1.77;;;0.60;;
17361;SDS011;8798;51.938;4.348;2024-03-29T06:05:12;0.70;;;0.50;;
17361;SDS011;8798;51.938;4.348;2024-03-29T06:07:39;1.03;;;0.70;;
17361;SDS011;8798;51.938;4.348;2024-03-29T06:10:06;1.07;;;0.70;;
17361;SDS011;8798;51.938;4.348;2024-03-29T06:12:35;1.73;;;0.70;;
17361;SDS011;8798;51.938;4.348;2024-03-29T06:15:04;1.83;;;0.60;;
17361;SDS011;8798;51.938;4.348;2024-03-29T06:17:49;2.10;;;0.80;;
17361;SDS011;8798;51.938;4.348;2024-03-29T06:20:18;1.00;;;0.50;;
17361;SDS011;8798;51.938;4.348;2024-03-29T06:22:45;0.83;;;0.70;;
17361;SDS011;8798;51.938;4.348;2024-03-29T06:25:12;2.13;;;0.50;;
17361;SDS011;8798;51.938;4.348;2024-03-29T06:27:39;1.00;;;0.60;;
17361;SDS011;8798;51.938;4.348;2024-03-29T06:30:06;3.40;;;0.93;;
17361;SDS011;8798;51.938;4.348;2024-03-29T06:32:34;2.03;;;0.70;;
17361;SDS011;8798;51.938;4.348;2024-03-29T06:35:02;2.80;;;0.80;;
17361;SDS011;8798;51.938;4.348;2024-03-29T06:37:31;1.67;;;0.90;;
17361;SDS011;8798;51.938;4.348;2024-03-29T06:39:58;2.37;;;0.87;;
17361;SDS011;8798;51.938;4.348;2024-03-29T06:42:25;1.60;;;0.83;;
17361;SDS011;8798;51.938;4.348;2024-03-29T06:44:52;2.70;;;0.90;;
17361;SDS011;8798;51.938;4.348;2024-03-29T06:47:20;3.53;;;1.00;;
17361;SDS011;8798;51.938;4.348;2024-03-29T06:49:47;4.70;;;0.87;;
17361;SDS011;8798;51.938;4.348;2024-03-29T06:52:14;2.60;;;1.03;;
17361;SDS011;8798;51.938;4.348;2024-03-29T06:54:42;1.73;;;0.97;;
17361;SDS011;8798;51.938;4.348;2024-03-29T06:57:09;2.90;;;0.70;;
17361;SDS011;8798;51.938;4.348;2024-03-29T06:59:42;1.40;;;0.93;;
17361;SDS011;8798;51.938;4.348;2024-03-29T07:02:09;3.07;;;0.83;;
17361;SDS011;8798;51.938;4.348;2024-03-29T07:04:37;0.80;;;0.60;;
17361;SDS011;8798;51.938;4.348;2024-03-29T07:07:04;3.40;;;0.90;;
17361;SDS011;8798;51.938;4.348;2024-03-29T07:09:31;2.57;;;0.90;;
17361;SDS011;8798;51.938;4.348;2024-03-29T07:11:59;2.57;;;0.90;;
17361;SDS011;8798;51.938;4.348;2024-03-29T07:14:27;2.70;;;0.90;;
17361;SDS011;8798;51.938;4.348;2024-03-29T07:16:54;1.70;;;0.80;;
17361;SDS011;8798;51.938;4.348;2024-03-29T07:19:22;1.47;;;0.70;;
17361;SDS011;8798;51.938;4.348;2024-03-29T07:21:49;1.40;;;0.80;;
17361;SDS011;8798;51.938;4.348;2024-03-29T07:24:19;2.13;;;0.90;;
17361;SDS011;8798;51.938;4.348;2024-03-29T07:26:46;2.70;;;0.90;;
17361;SDS011;8798;51.938;4.348;2024-03-29T07:29:15;1.57;;;1.00;;
17361;SDS011;8798;51.938;4.348;2024-03-29T07:31:42;1.17;;;0.93;;
17361;SDS011;8798;51.938;4.348;2024-03-29T07:34:09;1.73;;;0.90;;
17361;SDS011;8798;51.938;4.348;2024-03-29T07:36:36;1.63;;;0.97;;
17361;SDS011;8798;51.938;4.348;2024-03-29T07:39:05;2.83;;;1.00;;
17361;SDS011;8798;51.938;4.348;2024-03-29T07:41:32;1.43;;;0.87;;
17361;SDS011;8798;51.938;4.348;2024-03-29T07:43:59;4.00;;;1.10;;
17361;SDS011;8798;51.938;4.348;2024-03-29T07:46:31;3.33;;;1.37;;
17361;SDS011;8798;51.938;4.348;2024-03-29T07:48:59;1.70;;;1.00;;
17361;SDS011;8798;51.938;4.348;2024-03-29T07:51:26;3.37;;;1.30;;
17361;SDS011;8798;51.938;4.348;2024-03-29T07:53:53;4.70;;;1.20;;
17361;SDS011;8798;51.938;4.348;2024-03-29T07:56:20;1.60;;;0.93;;
17361;SDS011;8798;51.938;4.348;2024-03-29T07:58:50;2.00;;;1.07;;
17361;SDS011;8798;51.938;4.348;2024-03-29T08:01:18;1.73;;;1.10;;
17361;SDS011;8798;51.938;4.348;2024-03-29T08:03:47;4.17;;;1.30;;
17361;SDS011;8798;51.938;4.348;2024-03-29T08:06:16;2.50;;;1.00;;
17361;SDS011;8798;51.938;4.348;2024-03-29T08:08:44;5.43;;;1.50;;
17361;SDS011;8798;51.938;4.348;2024-03-29T08:11:11;2.10;;;1.20;;
17361;SDS011;8798;51.938;4.348;2024-03-29T08:13:39;3.27;;;1.33;;
17361;SDS011;8798;51.938;4.348;2024-03-29T08:16:07;2.40;;;1.00;;
17361;SDS011;8798;51.938;4.348;2024-03-29T08:18:34;1.77;;;0.90;;
17361;SDS011;8798;51.938;4.348;2024-03-29T08:21:03;1.87;;;1.20;;
17361;SDS011;8798;51.938;4.348;2024-03-29T08:23:36;2.67;;;1.03;;
17361;SDS011;8798;51.938;4.348;2024-03-29T08:26:05;1.97;;;1.00;;
17361;SDS011;8798;51.938;4.348;2024-03-29T08:28:32;1.70;;;0.80;;
17361;SDS011;8798;51.938;4.348;2024-03-29T08:31:02;5.00;;;1.20;;
17361;SDS011;8798;51.938;4.348;2024-03-29T08:33:31;2.43;;;1.30;;
17361;SDS011;8798;51.938;4.348;2024-03-29T08:35:58;1.57;;;0.70;;
17361;SDS011;8798;51.938;4.348;2024-03-29T08:38:27;2.37;;;0.87;;
17361;SDS011;8798;51.938;4.348;2024-03-29T08:40:54;3.63;;;1.40;;
17361;SDS011;8798;51.938;4.348;2024-03-29T08:43:21;3.47;;;0.97;;
17361;SDS011;8798;51.938;4.348;2024-03-29T08:45:47;1.87;;;0.93;;
17361;SDS011;8798;51.938;4.348;2024-03-29T08:48:15;1.57;;;0.80;;
17361;SDS011;8798;51.938;4.348;2024-03-29T08:50:42;1.80;;;0.90;;
17361;SDS011;8798;51.938;4.348;2024-03-29T08:53:08;0.90;;;0.70;;
17361;SDS011;8798;51.938;4.348;2024-03-29T08:55:37;1.07;;;0.70;;
17361;SDS011;8798;51.938;4.348;2024-03-29T08:58:05;1.13;;;0.70;;
17361;SDS011;8798;51.938;4.348;2024-03-29T09:00:33;0.60;;;0.60;;
17361;SDS011;8798;51.938;4.348;2024-03-29T09:03:00;2.20;;;0.67;;
17361;SDS011;8798;51.938;4.348;2024-03-29T09:05:27;0.80;;;0.50;;
17361;SDS011;8798;51.938;4.348;2024-03-29T09:07:55;1.17;;;0.50;;
17361;SDS011;8798;51.938;4.348;2024-03-29T09:10:23;1.83;;;0.43;;
17361;SDS011;8798;51.938;4.348;2024-03-29T09:12:53;0.30;;;0.30;;
17361;SDS011;8798;51.938;4.348;2024-03-29T09:15:20;1.73;;;0.60;;
17361;SDS011;8798;51.938;4.348;2024-03-29T09:17:47;2.63;;;0.37;;
17361;SDS011;8798;51.938;4.348;2024-03-29T09:20:14;0.93;;;0.50;;
17361;SDS011;8798;51.938;4.348;2024-03-29T09:22:41;1.13;;;0.40;;
17361;SDS011;8798;51.938;4.348;2024-03-29T09:25:08;2.53;;;0.60;;
17361;SDS011;8798;51.938;4.348;2024-03-29T09:27:38;1.20;;;0.60;;
17361;SDS011;8798;51.938;4.348;2024-03-29T09:30:10;2.17;;;0.70;;
17361;SDS011;8798;51.938;4.348;2024-03-29T09:32:38;2.70;;;0.70;;
17361;SDS011;8798;51.938;4.348;2024-03-29T09:35:06;1.57;;;0.50;;
17361;SDS011;8798;51.938;4.348;2024-03-29T09:37:33;0.97;;;0.37;;
17361;SDS011;8798;51.938;4.348;2024-03-29T09:40:02;1.53;;;0.47;;
17361;SDS011;8798;51.938;4.348;2024-03-29T09:45:53;1.67;;;0.83;;
17361;SDS011;8798;51.938;4.348;2024-03-29T09:48:21;0.80;;;0.60;;
17361;SDS011;8798;51.938;4.348;2024-03-29T09:50:49;1.33;;;0.60;;
17361;SDS011;8798;51.938;4.348;2024-03-29T09:53:17;1.50;;;0.80;;
17361;SDS011;8798;51.938;4.348;2024-03-29T09:55:46;1.50;;;0.80;;
17361;SDS011;8798;51.938;4.348;2024-03-29T09:58:14;1.90;;;1.00;;
17361;SDS011;8798;51.938;4.348;2024-03-29T10:00:41;2.80;;;1.10;;
17361;SDS011;8798;51.938;4.348;2024-03-29T10:03:09;3.33;;;1.20;;
17361;SDS011;8798;51.938;4.348;2024-03-29T10:05:36;2.57;;;1.10;;
17361;SDS011;8798;51.938;4.348;2024-03-29T10:08:05;1.47;;;0.80;;
17361;SDS011;8798;51.938;4.348;2024-03-29T10:10:33;2.93;;;0.90;;
17361;SDS011;8798;51.938;4.348;2024-03-29T10:13:00;1.43;;;0.87;;
17361;SDS011;8798;51.938;4.348;2024-03-29T10:15:29;2.30;;;1.07;;
17361;SDS011;8798;51.938;4.348;2024-03-29T10:18:02;2.40;;;1.10;;
17361;SDS011;8798;51.938;4.348;2024-03-29T10:20:31;1.73;;;1.10;;
17361;SDS011;8798;51.938;4.348;2024-03-29T10:22:58;1.87;;;1.20;;
17361;SDS011;8798;51.938;4.348;2024-03-29T10:25:31;1.80;;;1.03;;
17361;SDS011;8798;51.938;4.348;2024-03-29T10:27:58;4.30;;;1.10;;
17361;SDS011;8798;51.938;4.348;2024-03-29T10:30:27;1.50;;;0.97;;
17361;SDS011;8798;51.938;4.348;2024-03-29T10:32:55;2.20;;;1.07;;
17361;SDS011;8798;51.938;4.348;2024-03-29T10:35:22;3.63;;;1.30;;
17361;SDS011;8798;51.938;4.348;2024-03-29T10:37:50;3.00;;;1.40;;
17361;SDS011;8798;51.938;4.348;2024-03-29T10:40:18;1.93;;;1.10;;
17361;SDS011;8798;51.938;4.348;2024-03-29T10:42:49;1.93;;;1.20;;
17361;SDS011;8798;51.938;4.348;2024-03-29T10:45:18;15.77;;;1.67;;
17361;SDS011;8798;51.938;4.348;2024-03-29T10:47:47;3.10;;;1.20;;
17361;SDS011;8798;51.938;4.348;2024-03-29T10:50:15;2.13;;;1.50;;
17361;SDS011;8798;51.938;4.348;2024-03-29T10:52:46;3.43;;;1.03;;
17361;SDS011;8798;51.938;4.348;2024-03-29T10:55:16;1.73;;;1.00;;
17361;SDS011;8798;51.938;4.348;2024-03-29T10:57:44;3.73;;;1.67;;
17361;SDS011;8798;51.938;4.348;2024-03-29T11:00:16;5.90;;;1.60;;
17361;SDS011;8798;51.938;4.348;2024-03-29T11:02:48;6.50;;;1.60;;
17361;SDS011;8798;51.938;4.348;2024-03-29T11:05:16;1.50;;;1.30;;
17361;SDS011;8798;51.938;4.348;2024-03-29T11:07:44;2.27;;;1.60;;
17361;SDS011;8798;51.938;4.348;2024-03-29T11:10:15;3.37;;;1.40;;
17361;SDS011;8798;51.938;4.348;2024-03-29T11:12:46;2.50;;;1.50;;
17361;SDS011;8798;51.938;4.348;2024-03-29T11:15:21;2.63;;;1.63;;
17361;SDS011;8798;51.938;4.348;2024-03-29T11:17:54;3.17;;;1.40;;
17361;SDS011;8798;51.938;4.348;2024-03-29T11:20:22;4.27;;;1.63;;
17361;SDS011;8798;51.938;4.348;2024-03-29T11:22:59;2.33;;;1.67;;
17361;SDS011;8798;51.938;4.348;2024-03-29T11:25:40;3.53;;;2.03;;
17361;SDS011;8798;51.938;4.348;2024-03-29T11:28:08;3.63;;;2.50;;
17361;SDS011;8798;51.938;4.348;2024-03-29T11:30:42;3.30;;;2.63;;
17361;SDS011;8798;51.938;4.348;2024-03-29T11:33:27;7.00;;;2.50;;
17361;SDS011;8798;51.938;4.348;2024-03-29T11:35:56;4.03;;;2.73;;
17361;SDS011;8798;51.938;4.348;2024-03-29T11:38:29;2.50;;;2.20;;
17361;SDS011;8798;51.938;4.348;2024-03-29T11:41:05;2.23;;;1.90;;
17361;SDS011;8798;51.938;4.348;2024-03-29T11:43:34;3.10;;;2.00;;
17361;SDS011;8798;51.938;4.348;2024-03-29T11:46:02;2.53;;;1.93;;
17361;SDS011;8798;51.938;4.348;2024-03-29T11:48:31;1.93;;;1.77;;
17361;SDS011;8798;51.938;4.348;2024-03-29T11:50:58;2.60;;;2.20;;
17361;SDS011;8798;51.938;4.348;2024-03-29T11:53:26;1.90;;;1.70;;
17361;SDS011;8798;51.938;4.348;2024-03-29T11:55:55;3.10;;;2.10;;
17361;SDS011;8798;51.938;4.348;2024-03-29T11:58:23;2.27;;;1.90;;
17361;SDS011;8798;51.938;4.348;2024-03-29T12:00:52;2.40;;;2.10;;
17361;SDS011;8798;51.938;4.348;2024-03-29T12:03:19;2.77;;;2.37;;
17361;SDS011;8798;51.938;4.348;2024-03-29T12:05:48;2.53;;;1.93;;
17361;SDS011;8798;51.938;4.348;2024-03-29T12:08:17;3.63;;;1.93;;
17361;SDS011;8798;51.938;4.348;2024-03-29T12:10:44;2.87;;;1.70;;
17361;SDS011;8798;51.938;4.348;2024-03-29T12:13:11;1.80;;;1.37;;
17361;SDS011;8798;51.938;4.348;2024-03-29T12:15:42;2.43;;;1.70;;
17361;SDS011;8798;51.938;4.348;2024-03-29T12:18:10;3.37;;;1.50;;
17361;SDS011;8798;51.938;4.348;2024-03-29T12:20:37;1.87;;;1.20;;
17361;SDS011;8798;51.938;4.348;2024-03-29T12:23:05;2.13;;;1.03;;
17361;SDS011;8798;51.938;4.348;2024-03-29T12:25:35;2.67;;;1.23;;
17361;SDS011;8798;51.938;4.348;2024-03-29T12:28:03;2.27;;;1.40;;
17361;SDS011;8798;51.938;4.348;2024-03-29T12:30:32;1.93;;;0.77;;
17361;SDS011;8798;51.938;4.348;2024-03-29T12:33:01;3.83;;;1.03;;
17361;SDS011;8798;51.938;4.348;2024-03-29T12:35:29;5.43;;;1.13;;
17361;SDS011;8798;51.938;4.348;2024-03-29T12:37:57;3.00;;;1.10;;
17361;SDS011;8798;51.938;4.348;2024-03-29T12:40:25;3.00;;;1.17;;
17361;SDS011;8798;51.938;4.348;2024-03-29T12:42:55;3.07;;;1.27;;
17361;SDS011;8798;51.938;4.348;2024-03-29T12:45:24;2.67;;;1.10;;
17361;SDS011;8798;51.938;4.348;2024-03-29T12:47:51;3.67;;;1.17;;
17361;SDS011;8798;51.938;4.348;2024-03-29T12:50:24;5.37;;;0.97;;
17361;SDS011;8798;51.938;4.348;2024-03-29T12:52:53;3.30;;;1.00;;
17361;SDS011;8798;51.938;4.348;2024-03-29T12:55:21;1.30;;;0.93;;
17361;SDS011;8798;51.938;4.348;2024-03-29T12:57:49;4.73;;;1.10;;
17361;SDS011;8798;51.938;4.348;2024-03-29T13:00:18;1.97;;;1.07;;
17361;SDS011;8798;51.938;4.348;2024-03-29T13:02:45;3.07;;;0.90;;
17361;SDS011;8798;51.938;4.348;2024-03-29T13:05:12;1.43;;;1.07;;
17361;SDS011;8798;51.938;4.348;2024-03-29T13:07:41;3.27;;;1.10;;
17361;SDS011;8798;51.938;4.348;2024-03-29T13:10:08;2.37;;;1.00;;
17361;SDS011;8798;51.938;4.348;2024-03-29T13:12:39;3.13;;;1.00;;
17361;SDS011;8798;51.938;4.348;2024-03-29T13:15:17;4.33;;;1.10;;
17361;SDS011;8798;51.938;4.348;2024-03-29T13:17:46;2.87;;;1.50;;
17361;SDS011;8798;51.938;4.348;2024-03-29T13:20:14;2.13;;;1.40;;
17361;SDS011;8798;51.938;4.348;2024-03-29T13:22:43;4.17;;;1.60;;
17361;SDS011;8798;51.938;4.348;2024-03-29T13:25:11;3.57;;;1.67;;
17361;SDS011;8798;51.938;4.348;2024-03-29T13:27:38;3.93;;;1.60;;
17361;SDS011;8798;51.938;4.348;2024-03-29T13:30:06;4.73;;;1.70;;
17361;SDS011;8798;51.938;4.348;2024-03-29T13:32:34;5.60;;;1.90;;
17361;SDS011;8798;51.938;4.348;2024-03-29T13:35:02;4.83;;;1.70;;
17361;SDS011;8798;51.938;4.348;2024-03-29T13:37:30;4.60;;;1.80;;
17361;SDS011;8798;51.938;4.348;2024-03-29T13:39:59;2.50;;;1.80;;
17361;SDS011;8798;51.938;4.348;2024-03-29T13:42:26;3.00;;;1.50;;
17361;SDS011;8798;51.938;4.348;2024-03-29T13:44:53;2.87;;;1.37;;
17361;SDS011;8798;51.938;4.348;2024-03-29T13:47:20;1.27;;;1.17;;
17361;SDS011;8798;51.938;4.348;2024-03-29T13:49:47;2.53;;;1.50;;
17361;SDS011;8798;51.938;4.348;2024-03-29T13:52:18;1.60;;;1.33;;
17361;SDS011;8798;51.938;4.348;2024-03-29T13:54:45;4.17;;;2.27;;
17361;SDS011;8798;51.938;4.348;2024-03-29T13:57:13;1.50;;;0.90;;
17361;SDS011;8798;51.938;4.348;2024-03-29T13:59:41;4.03;;;1.30;;
17361;SDS011;8798;51.938;4.348;2024-03-29T14:02:11;3.37;;;1.43;;
17361;SDS011;8798;51.938;4.348;2024-03-29T14:04:38;2.07;;;1.00;;
17361;SDS011;8798;51.938;4.348;2024-03-29T14:07:05;1.83;;;1.17;;
17361;SDS011;8798;51.938;4.348;2024-03-29T14:09:34;3.90;;;1.00;;
17361;SDS011;8798;51.938;4.348;2024-03-29T14:12:01;3.07;;;1.13;;
17361;SDS011;8798;51.938;4.348;2024-03-29T14:14:30;4.03;;;1.30;;
17361;SDS011;8798;51.938;4.348;2024-03-29T14:16:57;2.67;;;1.20;;
17361;SDS011;8798;51.938;4.348;2024-03-29T14:19:29;2.47;;;1.03;;
17361;SDS011;8798;51.938;4.348;2024-03-29T14:21:56;2.30;;;0.93;;
17361;SDS011;8798;51.938;4.348;2024-03-29T14:24:23;4.17;;;1.40;;
17361;SDS011;8798;51.938;4.348;2024-03-29T14:26:52;1.50;;;1.00;;
17361;SDS011;8798;51.938;4.348;2024-03-29T14:29:19;2.13;;;1.33;;
17361;SDS011;8798;51.938;4.348;2024-03-29T14:31:48;2.00;;;0.90;;
17361;SDS011;8798;51.938;4.348;2024-03-29T14:34:15;2.27;;;0.93;;
17361;SDS011;8798;51.938;4.348;2024-03-29T14:36:42;1.83;;;0.70;;
17361;SDS011;8798;51.938;4.348;2024-03-29T14:39:09;3.83;;;0.87;;
17361;SDS011;8798;51.938;4.348;2024-03-29T14:41:38;3.80;;;0.60;;
17361;SDS011;8798;51.938;4.348;2024-03-29T14:44:05;1.17;;;0.60;;
17361;SDS011;8798;51.938;4.348;2024-03-29T14:46:32;1.27;;;0.70;;
17361;SDS011;8798;51.938;4.348;2024-03-29T14:49:01;2.63;;;1.00;;
17361;SDS011;8798;51.938;4.348;2024-03-29T14:51:30;1.17;;;0.73;;
17361;SDS011;8798;51.938;4.348;2024-03-29T14:53:57;14.27;;;1.90;;
17361;SDS011;8798;51.938;4.348;2024-03-29T14:56:24;5.27;;;1.00;;
17361;SDS011;8798;51.938;4.348;2024-03-29T14:58:52;3.27;;;0.80;;
17361;SDS011;8798;51.938;4.348;2024-03-29T15:01:18;2.90;;;0.90;;
17361;SDS011;8798;51.938;4.348;2024-03-29T15:03:46;1.40;;;0.70;;
17361;SDS011;8798;51.938;4.348;2024-03-29T15:06:14;3.17;;;0.80;;
17361;SDS011;8798;51.938;4.348;2024-03-29T15:08:41;3.00;;;0.80;;